sensor_id;sensor_type;location;lat;lon;timestamp;temperature;humidity
26745;DHT22;14342;50.960;13.880;2023-10-08T00:00:43;19.30;99.90
26745;DHT22;14342;50.960;13.880;2023-10-08T00:01:47;19.30;99.90
26745;DHT22;14342;50.960;13.880;2023-10-08T00:02:48;19.30;99.90
26745;DHT22;14342;50.960;13.880;2023-10-08T00:03:50;19.30;99.90
26745;DHT22;14342;50.960;13.880;2023-10-08T00:04:51;19.30;99.90
26745;DHT22;14342;50.960;13.880;2023-10-08T00:05:53;19.30;99.90
26745;DHT22;14342;50.960;13.880;2023-10-08T00:06:53;19.40;99.90
26745;DHT22;14342;50.960;13.880;2023-10-08T00:07:54;19.40;99.90
26745;DHT22;14342;50.960;13.880;2023-10-08T00:08:58;19.40;99.90
26745;DHT22;14342;50.960;13.880;2023-10-08T00:10:00;19.40;99.90
26745;DHT22;14342;50.960;13.880;2023-10-08T00:11:03;19.30;99.90
26745;DHT22;14342;50.960;13.880;2023-10-08T00:12:06;19.60;99.90
26745;DHT22;14342;50.960;13.880;2023-10-08T00:13:08;19.30;99.90
26745;DHT22;14342;50.960;13.880;2023-10-08T00:14:10;19.30;99.90
26745;DHT22;14342;50.960;13.880;2023-10-08T00:15:11;19.50;99.90
26745;DHT22;14342;50.960;13.880;2023-10-08T00:16:13;19.20;99.90
26745;DHT22;14342;50.960;13.880;2023-10-08T00:17:16;19.20;99.90
26745;DHT22;14342;50.960;13.880;2023-10-08T00:18:19;19.20;99.90
26745;DHT22;14342;50.960;13.880;2023-10-08T00:19:19;19.20;99.90
26745;DHT22;14342;50.960;13.880;2023-10-08T00:20:21;19.30;99.90
26745;DHT22;14342;50.960;13.880;2023-10-08T00:21:26;19.30;99.90
26745;DHT22;14342;50.960;13.880;2023-10-08T00:22:27;19.40;99.90
26745;DHT22;14342;50.960;13.880;2023-10-08T00:23:31;19.10;99.90
26745;DHT22;14342;50.960;13.880;2023-10-08T00:24:36;19.00;99.90
26745;DHT22;14342;50.960;13.880;2023-10-08T00:25:41;19.00;99.90
26745;DHT22;14342;50.960;13.880;2023-10-08T00:26:44;19.10;99.90
26745;DHT22;14342;50.960;13.880;2023-10-08T00:27:44;19.10;99.90
26745;DHT22;14342;50.960;13.880;2023-10-08T00:28:49;19.10;99.90
26745;DHT22;14342;50.960;13.880;2023-10-08T00:29:52;19.10;99.90
26745;DHT22;14342;50.960;13.880;2023-10-08T00:30:53;19.10;99.90
26745;DHT22;14342;50.960;13.880;2023-10-08T00:31:55;19.10;99.90
26745;DHT22;14342;50.960;13.880;2023-10-08T00:32:57;19.10;99.90
26745;DHT22;14342;50.960;13.880;2023-10-08T00:33:58;19.10;99.90
26745;DHT22;14342;50.960;13.880;2023-10-08T00:34:59;19.10;99.90
26745;DHT22;14342;50.960;13.880;2023-10-08T00:36:00;19.10;99.90
26745;DHT22;14342;50.960;13.880;2023-10-08T00:37:17;19.10;99.90
26745;DHT22;14342;50.960;13.880;2023-10-08T00:38:24;19.10;99.90
26745;DHT22;14342;50.960;13.880;2023-10-08T00:39:32;19.10;99.90
26745;DHT22;14342;50.960;13.880;2023-10-08T00:40:39;19.10;99.90
26745;DHT22;14342;50.960;13.880;2023-10-08T00:41:40;19.00;99.90
26745;DHT22;14342;50.960;13.880;2023-10-08T00:42:43;19.00;99.90
26745;DHT22;14342;50.960;13.880;2023-10-08T00:43:46;19.00;99.90
26745;DHT22;14342;50.960;13.880;2023-10-08T00:44:47;19.00;99.90
26745;DHT22;14342;50.960;13.880;2023-10-08T00:45:51;18.80;99.90
26745;DHT22;14342;50.960;13.880;2023-10-08T00:46:53;18.90;99.90
26745;DHT22;14342;50.960;13.880;2023-10-08T00:47:56;18.90;99.90
26745;DHT22;14342;50.960;13.880;2023-10-08T00:48:59;18.90;99.90
26745;DHT22;14342;50.960;13.880;2023-10-08T00:50:18;18.90;99.90
26745;DHT22;14342;50.960;13.880;2023-10-08T00:51:22;18.90;99.90
26745;DHT22;14342;50.960;13.880;2023-10-08T00:52:26;18.90;99.90
26745;DHT22;14342;50.960;13.880;2023-10-08T00:53:29;19.00;99.90
26745;DHT22;14342;50.960;13.880;2023-10-08T00:54:39;18.90;99.90
26745;DHT22;14342;50.960;13.880;2023-10-08T00:55:51;18.90;99.90
26745;DHT22;14342;50.960;13.880;2023-10-08T00:56:54;19.00;99.90
26745;DHT22;14342;50.960;13.880;2023-10-08T00:57:58;19.00;99.90
26745;DHT22;14342;50.960;13.880;2023-10-08T00:59:08;18.90;99.90
26745;DHT22;14342;50.960;13.880;2023-10-08T01:00:13;18.90;99.90
26745;DHT22;14342;50.960;13.880;2023-10-08T01:01:23;18.80;99.90
26745;DHT22;14342;50.960;13.880;2023-10-08T01:02:24;18.90;99.90
26745;DHT22;14342;50.960;13.880;2023-10-08T01:03:28;18.80;99.90
26745;DHT22;14342;50.960;13.880;2023-10-08T01:04:29;18.80;99.90
26745;DHT22;14342;50.960;13.880;2023-10-08T01:05:34;18.80;99.90
26745;DHT22;14342;50.960;13.880;2023-10-08T01:06:43;18.90;99.90
26745;DHT22;14342;50.960;13.880;2023-10-08T01:07:43;18.80;99.90
26745;DHT22;14342;50.960;13.880;2023-10-08T01:08:49;18.70;99.90
26745;DHT22;14342;50.960;13.880;2023-10-08T01:09:54;18.70;99.90
26745;DHT22;14342;50.960;13.880;2023-10-08T01:12:17;18.80;99.90
26745;DHT22;14342;50.960;13.880;2023-10-08T01:13:24;18.80;99.90
26745;DHT22;14342;50.960;13.880;2023-10-08T01:14:27;18.80;99.90
26745;DHT22;14342;50.960;13.880;2023-10-08T01:15:33;18.80;99.90
26745;DHT22;14342;50.960;13.880;2023-10-08T01:16:36;18.80;99.90
26745;DHT22;14342;50.960;13.880;2023-10-08T01:17:39;18.80;99.90
26745;DHT22;14342;50.960;13.880;2023-10-08T01:18:48;18.80;99.90
26745;DHT22;14342;50.960;13.880;2023-10-08T01:19:54;19.10;99.90
26745;DHT22;14342;50.960;13.880;2023-10-08T01:20:57;18.90;99.90
26745;DHT22;14342;50.960;13.880;2023-10-08T01:22:07;18.80;99.90
26745;DHT22;14342;50.960;13.880;2023-10-08T01:23:09;18.80;99.90
26745;DHT22;14342;50.960;13.880;2023-10-08T01:24:13;18.80;99.90
26745;DHT22;14342;50.960;13.880;2023-10-08T01:25:17;18.80;99.90
26745;DHT22;14342;50.960;13.880;2023-10-08T01:26:24;18.80;99.90
26745;DHT22;14342;50.960;13.880;2023-10-08T01:27:29;18.80;99.90
26745;DHT22;14342;50.960;13.880;2023-10-08T01:28:34;18.70;99.90
26745;DHT22;14342;50.960;13.880;2023-10-08T01:29:35;18.60;99.90
26745;DHT22;14342;50.960;13.880;2023-10-08T01:30:36;18.50;99.90
26745;DHT22;14342;50.960;13.880;2023-10-08T01:31:42;18.50;99.90
26745;DHT22;14342;50.960;13.880;2023-10-08T01:32:42;18.50;99.90
26745;DHT22;14342;50.960;13.880;2023-10-08T01:33:44;18.50;99.90
26745;DHT22;14342;50.960;13.880;2023-10-08T01:34:47;18.50;99.90
26745;DHT22;14342;50.960;13.880;2023-10-08T01:35:49;18.60;99.90
26745;DHT22;14342;50.960;13.880;2023-10-08T01:36:50;18.40;99.90
26745;DHT22;14342;50.960;13.880;2023-10-08T01:37:52;18.50;99.90
26745;DHT22;14342;50.960;13.880;2023-10-08T01:38:56;18.80;99.90
26745;DHT22;14342;50.960;13.880;2023-10-08T01:39:58;18.60;99.90
26745;DHT22;14342;50.960;13.880;2023-10-08T01:41:01;18.50;99.90
26745;DHT22;14342;50.960;13.880;2023-10-08T01:42:10;18.70;99.90
26745;DHT22;14342;50.960;13.880;2023-10-08T01:43:17;18.30;99.90
26745;DHT22;14342;50.960;13.880;2023-10-08T01:44:19;18.30;99.90
26745;DHT22;14342;50.960;13.880;2023-10-08T01:45:20;18.20;99.90
26745;DHT22;14342;50.960;13.880;2023-10-08T01:46:25;17.90;99.90
26745;DHT22;14342;50.960;13.880;2023-10-08T01:47:26;18.00;99.90
26745;DHT22;14342;50.960;13.880;2023-10-08T01:48:30;17.50;99.90
26745;DHT22;14342;50.960;13.880;2023-10-08T01:49:38;17.30;99.90
26745;DHT22;14342;50.960;13.880;2023-10-08T01:50:40;17.30;99.90
26745;DHT22;14342;50.960;13.880;2023-10-08T01:51:40;16.80;99.90
26745;DHT22;14342;50.960;13.880;2023-10-08T01:52:47;16.80;99.90
26745;DHT22;14342;50.960;13.880;2023-10-08T01:53:49;16.70;99.90
26745;DHT22;14342;50.960;13.880;2023-10-08T01:54:49;16.70;99.90
26745;DHT22;14342;50.960;13.880;2023-10-08T01:55:54;16.50;99.90
26745;DHT22;14342;50.960;13.880;2023-10-08T01:56:55;16.50;99.90
26745;DHT22;14342;50.960;13.880;2023-10-08T01:57:57;16.40;99.90
26745;DHT22;14342;50.960;13.880;2023-10-08T01:58:57;16.30;99.90
26745;DHT22;14342;50.960;13.880;2023-10-08T02:00:01;16.40;99.90
26745;DHT22;14342;50.960;13.880;2023-10-08T02:01:01;16.40;99.90
26745;DHT22;14342;50.960;13.880;2023-10-08T02:02:05;15.90;99.90
26745;DHT22;14342;50.960;13.880;2023-10-08T02:03:07;16.30;99.90
26745;DHT22;14342;50.960;13.880;2023-10-08T02:04:07;16.40;99.90
26745;DHT22;14342;50.960;13.880;2023-10-08T02:05:10;16.10;99.90
26745;DHT22;14342;50.960;13.880;2023-10-08T02:06:15;16.10;99.90
26745;DHT22;14342;50.960;13.880;2023-10-08T02:07:16;16.20;99.90
26745;DHT22;14342;50.960;13.880;2023-10-08T02:08:17;16.30;99.90
26745;DHT22;14342;50.960;13.880;2023-10-08T02:09:19;16.20;99.90
26745;DHT22;14342;50.960;13.880;2023-10-08T02:10:26;16.20;99.90
26745;DHT22;14342;50.960;13.880;2023-10-08T02:11:26;16.30;99.90
26745;DHT22;14342;50.960;13.880;2023-10-08T02:12:28;16.50;99.90
26745;DHT22;14342;50.960;13.880;2023-10-08T02:13:29;16.20;99.90
26745;DHT22;14342;50.960;13.880;2023-10-08T02:14:31;16.10;99.90
26745;DHT22;14342;50.960;13.880;2023-10-08T02:15:32;15.80;99.90
26745;DHT22;14342;50.960;13.880;2023-10-08T02:16:34;15.40;99.90
26745;DHT22;14342;50.960;13.880;2023-10-08T02:17:34;15.10;99.90
26745;DHT22;14342;50.960;13.880;2023-10-08T02:18:36;15.00;99.90
26745;DHT22;14342;50.960;13.880;2023-10-08T02:19:37;14.80;99.90
26745;DHT22;14342;50.960;13.880;2023-10-08T02:20:42;14.60;99.90
26745;DHT22;14342;50.960;13.880;2023-10-08T02:21:43;14.60;99.90
26745;DHT22;14342;50.960;13.880;2023-10-08T02:22:46;14.40;99.90
26745;DHT22;14342;50.960;13.880;2023-10-08T02:23:47;14.30;99.90
26745;DHT22;14342;50.960;13.880;2023-10-08T02:24:50;14.50;99.90
26745;DHT22;14342;50.960;13.880;2023-10-08T02:25:51;14.20;99.90
26745;DHT22;14342;50.960;13.880;2023-10-08T02:26:52;14.10;99.90
26745;DHT22;14342;50.960;13.880;2023-10-08T02:27:55;14.20;99.90
26745;DHT22;14342;50.960;13.880;2023-10-08T02:28:55;14.20;99.90
26745;DHT22;14342;50.960;13.880;2023-10-08T02:30:00;14.20;99.90
26745;DHT22;14342;50.960;13.880;2023-10-08T02:31:02;13.90;99.90
26745;DHT22;14342;50.960;13.880;2023-10-08T02:32:04;13.90;99.90
26745;DHT22;14342;50.960;13.880;2023-10-08T02:33:05;13.80;99.90
26745;DHT22;14342;50.960;13.880;2023-10-08T02:34:14;13.80;99.90
26745;DHT22;14342;50.960;13.880;2023-10-08T02:35:15;13.60;99.90
26745;DHT22;14342;50.960;13.880;2023-10-08T02:36:17;13.50;99.90
26745;DHT22;14342;50.960;13.880;2023-10-08T02:37:17;13.40;99.90
26745;DHT22;14342;50.960;13.880;2023-10-08T02:38:19;13.40;99.90
26745;DHT22;14342;50.960;13.880;2023-10-08T02:39:21;13.20;99.90
26745;DHT22;14342;50.960;13.880;2023-10-08T02:40:27;13.10;99.90
26745;DHT22;14342;50.960;13.880;2023-10-08T02:41:28;13.10;99.90
26745;DHT22;14342;50.960;13.880;2023-10-08T02:42:29;13.10;99.90
26745;DHT22;14342;50.960;13.880;2023-10-08T02:43:30;13.20;99.90
26745;DHT22;14342;50.960;13.880;2023-10-08T02:44:31;13.20;99.90
26745;DHT22;14342;50.960;13.880;2023-10-08T02:45:32;13.20;99.90
26745;DHT22;14342;50.960;13.880;2023-10-08T02:46:38;12.90;99.90
26745;DHT22;14342;50.960;13.880;2023-10-08T02:47:41;12.80;99.90
26745;DHT22;14342;50.960;13.880;2023-10-08T02:48:44;12.80;99.90
26745;DHT22;14342;50.960;13.880;2023-10-08T02:49:45;12.80;99.90
26745;DHT22;14342;50.960;13.880;2023-10-08T02:50:48;12.80;99.90
26745;DHT22;14342;50.960;13.880;2023-10-08T02:51:50;12.80;99.90
26745;DHT22;14342;50.960;13.880;2023-10-08T02:52:52;12.80;99.90
26745;DHT22;14342;50.960;13.880;2023-10-08T02:53:52;12.90;99.90
26745;DHT22;14342;50.960;13.880;2023-10-08T02:54:54;12.90;99.90
26745;DHT22;14342;50.960;13.880;2023-10-08T02:55:56;13.00;99.90
26745;DHT22;14342;50.960;13.880;2023-10-08T02:56:57;12.80;99.90
26745;DHT22;14342;50.960;13.880;2023-10-08T02:58:00;12.80;99.90
26745;DHT22;14342;50.960;13.880;2023-10-08T02:59:02;12.80;99.90
26745;DHT22;14342;50.960;13.880;2023-10-08T03:00:04;12.80;99.90
26745;DHT22;14342;50.960;13.880;2023-10-08T03:01:12;12.80;99.90
26745;DHT22;14342;50.960;13.880;2023-10-08T03:02:15;12.80;99.90
26745;DHT22;14342;50.960;13.880;2023-10-08T03:03:18;12.90;99.90
26745;DHT22;14342;50.960;13.880;2023-10-08T03:04:19;12.90;99.90
26745;DHT22;14342;50.960;13.880;2023-10-08T03:05:23;12.90;99.90
26745;DHT22;14342;50.960;13.880;2023-10-08T03:06:23;12.70;99.90
26745;DHT22;14342;50.960;13.880;2023-10-08T03:07:25;12.70;99.90
26745;DHT22;14342;50.960;13.880;2023-10-08T03:08:32;12.70;99.90
26745;DHT22;14342;50.960;13.880;2023-10-08T03:09:37;12.70;99.90
26745;DHT22;14342;50.960;13.880;2023-10-08T03:10:42;12.60;99.90
26745;DHT22;14342;50.960;13.880;2023-10-08T03:11:46;12.50;99.90
26745;DHT22;14342;50.960;13.880;2023-10-08T03:12:47;12.50;99.90
26745;DHT22;14342;50.960;13.880;2023-10-08T03:13:50;12.50;99.90
26745;DHT22;14342;50.960;13.880;2023-10-08T03:14:53;12.50;99.90
26745;DHT22;14342;50.960;13.880;2023-10-08T03:16:13;12.50;99.90
26745;DHT22;14342;50.960;13.880;2023-10-08T03:17:14;12.50;99.90
26745;DHT22;14342;50.960;13.880;2023-10-08T03:18:20;12.50;99.90
26745;DHT22;14342;50.960;13.880;2023-10-08T03:19:21;12.50;99.90
26745;DHT22;14342;50.960;13.880;2023-10-08T03:20:23;12.50;99.90
26745;DHT22;14342;50.960;13.880;2023-10-08T03:21:30;12.50;99.90
26745;DHT22;14342;50.960;13.880;2023-10-08T03:22:44;12.50;99.90
26745;DHT22;14342;50.960;13.880;2023-10-08T03:23:46;12.50;99.90
26745;DHT22;14342;50.960;13.880;2023-10-08T03:24:48;12.40;99.90
26745;DHT22;14342;50.960;13.880;2023-10-08T03:25:50;12.40;99.90
26745;DHT22;14342;50.960;13.880;2023-10-08T03:26:58;12.40;99.90
26745;DHT22;14342;50.960;13.880;2023-10-08T03:28:07;12.30;99.90
26745;DHT22;14342;50.960;13.880;2023-10-08T03:29:09;12.30;99.90
26745;DHT22;14342;50.960;13.880;2023-10-08T03:30:16;12.30;99.90
26745;DHT22;14342;50.960;13.880;2023-10-08T03:31:17;12.30;99.90
26745;DHT22;14342;50.960;13.880;2023-10-08T03:32:20;12.30;99.90
26745;DHT22;14342;50.960;13.880;2023-10-08T03:33:27;12.40;99.90
26745;DHT22;14342;50.960;13.880;2023-10-08T03:34:29;12.30;99.90
26745;DHT22;14342;50.960;13.880;2023-10-08T03:35:34;12.20;99.90
26745;DHT22;14342;50.960;13.880;2023-10-08T03:36:37;12.20;99.90
26745;DHT22;14342;50.960;13.880;2023-10-08T03:37:44;12.20;99.90
26745;DHT22;14342;50.960;13.880;2023-10-08T03:38:50;12.20;99.90
26745;DHT22;14342;50.960;13.880;2023-10-08T03:39:51;12.20;99.90
26745;DHT22;14342;50.960;13.880;2023-10-08T03:40:52;12.20;99.90
26745;DHT22;14342;50.960;13.880;2023-10-08T03:41:59;12.10;99.90
26745;DHT22;14342;50.960;13.880;2023-10-08T03:43:06;12.00;99.90
26745;DHT22;14342;50.960;13.880;2023-10-08T03:44:15;11.70;99.90
26745;DHT22;14342;50.960;13.880;2023-10-08T03:45:17;11.70;99.90
26745;DHT22;14342;50.960;13.880;2023-10-08T03:46:33;11.50;99.90
26745;DHT22;14342;50.960;13.880;2023-10-08T03:47:39;11.50;99.90
26745;DHT22;14342;50.960;13.880;2023-10-08T03:48:46;11.40;99.90
26745;DHT22;14342;50.960;13.880;2023-10-08T03:49:51;11.40;99.90
26745;DHT22;14342;50.960;13.880;2023-10-08T03:50:52;11.30;99.90
26745;DHT22;14342;50.960;13.880;2023-10-08T03:51:57;11.30;99.90
26745;DHT22;14342;50.960;13.880;2023-10-08T03:52:57;11.10;99.90
26745;DHT22;14342;50.960;13.880;2023-10-08T03:54:03;11.00;99.90
26745;DHT22;14342;50.960;13.880;2023-10-08T03:55:15;11.00;99.90
26745;DHT22;14342;50.960;13.880;2023-10-08T03:56:27;11.00;99.90
26745;DHT22;14342;50.960;13.880;2023-10-08T03:57:31;10.80;99.90
26745;DHT22;14342;50.960;13.880;2023-10-08T03:58:42;10.70;99.90
26745;DHT22;14342;50.960;13.880;2023-10-08T03:59:47;10.60;99.90
26745;DHT22;14342;50.960;13.880;2023-10-08T04:00:49;10.60;99.90
26745;DHT22;14342;50.960;13.880;2023-10-08T04:01:50;10.60;99.90
26745;DHT22;14342;50.960;13.880;2023-10-08T04:02:55;10.50;99.90
26745;DHT22;14342;50.960;13.880;2023-10-08T04:03:56;10.50;99.90
26745;DHT22;14342;50.960;13.880;2023-10-08T04:05:01;10.40;99.90
26745;DHT22;14342;50.960;13.880;2023-10-08T04:06:15;10.40;99.90
26745;DHT22;14342;50.960;13.880;2023-10-08T04:07:23;10.50;99.90
26745;DHT22;14342;50.960;13.880;2023-10-08T04:08:39;10.50;99.90
26745;DHT22;14342;50.960;13.880;2023-10-08T04:09:43;10.60;99.90
26745;DHT22;14342;50.960;13.880;2023-10-08T04:10:45;10.50;99.90
26745;DHT22;14342;50.960;13.880;2023-10-08T04:12:08;10.50;99.90
26745;DHT22;14342;50.960;13.880;2023-10-08T04:13:12;10.50;99.90
26745;DHT22;14342;50.960;13.880;2023-10-08T04:14:16;10.50;99.90
26745;DHT22;14342;50.960;13.880;2023-10-08T04:15:17;10.40;99.90
26745;DHT22;14342;50.960;13.880;2023-10-08T04:16:20;10.30;99.90
26745;DHT22;14342;50.960;13.880;2023-10-08T04:17:20;10.30;99.90
26745;DHT22;14342;50.960;13.880;2023-10-08T04:18:23;10.30;99.90
26745;DHT22;14342;50.960;13.880;2023-10-08T04:19:23;10.30;99.90
26745;DHT22;14342;50.960;13.880;2023-10-08T04:20:27;10.30;99.90
26745;DHT22;14342;50.960;13.880;2023-10-08T04:21:33;10.30;99.90
26745;DHT22;14342;50.960;13.880;2023-10-08T04:22:35;10.40;99.90
26745;DHT22;14342;50.960;13.880;2023-10-08T04:23:37;10.40;99.90
26745;DHT22;14342;50.960;13.880;2023-10-08T04:24:39;10.50;99.90
26745;DHT22;14342;50.960;13.880;2023-10-08T04:25:44;10.50;99.90
26745;DHT22;14342;50.960;13.880;2023-10-08T04:26:47;10.60;99.90
26745;DHT22;14342;50.960;13.880;2023-10-08T04:27:50;10.60;99.90
26745;DHT22;14342;50.960;13.880;2023-10-08T04:28:55;10.60;99.90
26745;DHT22;14342;50.960;13.880;2023-10-08T04:29:57;10.70;99.90
26745;DHT22;14342;50.960;13.880;2023-10-08T04:31:00;10.80;99.90
26745;DHT22;14342;50.960;13.880;2023-10-08T04:32:14;10.80;99.90
26745;DHT22;14342;50.960;13.880;2023-10-08T04:33:25;10.70;99.90
26745;DHT22;14342;50.960;13.880;2023-10-08T04:34:25;10.60;99.90
26745;DHT22;14342;50.960;13.880;2023-10-08T04:35:28;10.30;99.90
26745;DHT22;14342;50.960;13.880;2023-10-08T04:36:29;10.30;99.90
26745;DHT22;14342;50.960;13.880;2023-10-08T04:37:32;10.30;99.90
26745;DHT22;14342;50.960;13.880;2023-10-08T04:38:34;10.20;99.90
26745;DHT22;14342;50.960;13.880;2023-10-08T04:39:40;10.10;99.90
26745;DHT22;14342;50.960;13.880;2023-10-08T04:40:55;10.10;99.90
26745;DHT22;14342;50.960;13.880;2023-10-08T04:41:56;10.30;99.90
26745;DHT22;14342;50.960;13.880;2023-10-08T04:43:00;10.30;99.90
26745;DHT22;14342;50.960;13.880;2023-10-08T04:44:04;10.30;99.90
26745;DHT22;14342;50.960;13.880;2023-10-08T04:45:12;10.30;99.90
26745;DHT22;14342;50.960;13.880;2023-10-08T04:46:13;10.40;99.90
26745;DHT22;14342;50.960;13.880;2023-10-08T04:47:32;10.40;99.90
26745;DHT22;14342;50.960;13.880;2023-10-08T04:48:32;10.40;99.90
26745;DHT22;14342;50.960;13.880;2023-10-08T04:49:37;10.50;99.90
26745;DHT22;14342;50.960;13.880;2023-10-08T04:50:46;10.80;99.90
26745;DHT22;14342;50.960;13.880;2023-10-08T04:51:52;10.60;99.90
26745;DHT22;14342;50.960;13.880;2023-10-08T04:52:57;10.70;99.90
26745;DHT22;14342;50.960;13.880;2023-10-08T04:53:59;10.60;99.90
26745;DHT22;14342;50.960;13.880;2023-10-08T04:55:01;10.80;99.90
26745;DHT22;14342;50.960;13.880;2023-10-08T04:56:13;10.90;99.90
26745;DHT22;14342;50.960;13.880;2023-10-08T04:57:13;10.90;99.90
26745;DHT22;14342;50.960;13.880;2023-10-08T04:58:16;11.00;99.90
26745;DHT22;14342;50.960;13.880;2023-10-08T04:59:28;11.10;99.90
26745;DHT22;14342;50.960;13.880;2023-10-08T05:00:33;11.10;99.90
26745;DHT22;14342;50.960;13.880;2023-10-08T05:01:41;11.40;99.90
26745;DHT22;14342;50.960;13.880;2023-10-08T05:02:48;11.10;99.90
26745;DHT22;14342;50.960;13.880;2023-10-08T05:03:50;11.00;99.90
26745;DHT22;14342;50.960;13.880;2023-10-08T05:05:24;10.90;99.90
26745;DHT22;14342;50.960;13.880;2023-10-08T05:06:38;10.50;99.90
26745;DHT22;14342;50.960;13.880;2023-10-08T05:08:01;10.40;99.90
26745;DHT22;14342;50.960;13.880;2023-10-08T05:09:01;10.50;99.90
26745;DHT22;14342;50.960;13.880;2023-10-08T05:10:11;10.50;99.90
26745;DHT22;14342;50.960;13.880;2023-10-08T05:11:32;10.50;99.90
26745;DHT22;14342;50.960;13.880;2023-10-08T05:12:46;10.40;99.90
26745;DHT22;14342;50.960;13.880;2023-10-08T05:13:51;10.20;99.90
26745;DHT22;14342;50.960;13.880;2023-10-08T05:15:08;10.40;99.90
26745;DHT22;14342;50.960;13.880;2023-10-08T05:16:33;10.10;99.90
26745;DHT22;14342;50.960;13.880;2023-10-08T05:17:44;10.10;99.90
26745;DHT22;14342;50.960;13.880;2023-10-08T05:18:58;10.10;99.90
26745;DHT22;14342;50.960;13.880;2023-10-08T05:20:25;10.20;99.90
26745;DHT22;14342;50.960;13.880;2023-10-08T05:21:44;10.20;99.90
26745;DHT22;14342;50.960;13.880;2023-10-08T05:23:05;10.30;99.90
26745;DHT22;14342;50.960;13.880;2023-10-08T05:24:20;10.30;99.90
26745;DHT22;14342;50.960;13.880;2023-10-08T05:25:28;10.20;99.90
26745;DHT22;14342;50.960;13.880;2023-10-08T05:26:41;10.20;99.90
26745;DHT22;14342;50.960;13.880;2023-10-08T05:27:51;10.30;99.90
26745;DHT22;14342;50.960;13.880;2023-10-08T05:28:58;10.30;99.90
26745;DHT22;14342;50.960;13.880;2023-10-08T05:30:04;10.30;99.90
26745;DHT22;14342;50.960;13.880;2023-10-08T05:31:27;10.30;99.90
26745;DHT22;14342;50.960;13.880;2023-10-08T05:32:46;10.30;99.90
26745;DHT22;14342;50.960;13.880;2023-10-08T05:34:06;10.40;99.90
26745;DHT22;14342;50.960;13.880;2023-10-08T05:35:15;10.50;99.90
26745;DHT22;14342;50.960;13.880;2023-10-08T05:36:48;10.40;99.90
26745;DHT22;14342;50.960;13.880;2023-10-08T05:38:07;10.40;99.90
26745;DHT22;14342;50.960;13.880;2023-10-08T05:39:14;10.40;99.90
26745;DHT22;14342;50.960;13.880;2023-10-08T05:40:30;10.40;99.90
26745;DHT22;14342;50.960;13.880;2023-10-08T05:42:04;10.50;99.90
26745;DHT22;14342;50.960;13.880;2023-10-08T05:43:13;10.70;99.90
26745;DHT22;14342;50.960;13.880;2023-10-08T05:44:33;10.40;99.90
26745;DHT22;14342;50.960;13.880;2023-10-08T05:45:39;10.40;99.90
26745;DHT22;14342;50.960;13.880;2023-10-08T05:46:54;10.50;99.90
26745;DHT22;14342;50.960;13.880;2023-10-08T05:48:12;10.50;99.90
26745;DHT22;14342;50.960;13.880;2023-10-08T05:49:15;10.40;99.90
26745;DHT22;14342;50.960;13.880;2023-10-08T05:50:26;10.40;99.90
26745;DHT22;14342;50.960;13.880;2023-10-08T05:51:40;10.40;99.90
26745;DHT22;14342;50.960;13.880;2023-10-08T05:52:45;10.50;99.90
26745;DHT22;14342;50.960;13.880;2023-10-08T05:54:02;10.40;99.90
26745;DHT22;14342;50.960;13.880;2023-10-08T05:55:12;10.50;99.90
26745;DHT22;14342;50.960;13.880;2023-10-08T05:56:25;10.50;99.90
26745;DHT22;14342;50.960;13.880;2023-10-08T05:57:42;10.80;99.90
26745;DHT22;14342;50.960;13.880;2023-10-08T05:58:52;10.90;99.90
26745;DHT22;14342;50.960;13.880;2023-10-08T06:00:03;10.60;99.90
26745;DHT22;14342;50.960;13.880;2023-10-08T06:01:18;10.50;99.90
26745;DHT22;14342;50.960;13.880;2023-10-08T06:02:43;10.50;99.90
26745;DHT22;14342;50.960;13.880;2023-10-08T06:04:01;10.20;99.90
26745;DHT22;14342;50.960;13.880;2023-10-08T06:05:21;10.10;99.90
26745;DHT22;14342;50.960;13.880;2023-10-08T06:06:24;10.00;99.90
26745;DHT22;14342;50.960;13.880;2023-10-08T06:07:37;9.90;99.90
26745;DHT22;14342;50.960;13.880;2023-10-08T06:08:49;9.80;99.90
26745;DHT22;14342;50.960;13.880;2023-10-08T06:09:52;9.50;99.90
26745;DHT22;14342;50.960;13.880;2023-10-08T06:11:02;9.60;99.90
26745;DHT22;14342;50.960;13.880;2023-10-08T06:12:14;9.40;99.90
26745;DHT22;14342;50.960;13.880;2023-10-08T06:13:30;9.40;99.90
26745;DHT22;14342;50.960;13.880;2023-10-08T06:14:44;9.30;99.90
26745;DHT22;14342;50.960;13.880;2023-10-08T06:16:07;9.20;99.90
26745;DHT22;14342;50.960;13.880;2023-10-08T06:17:09;9.20;99.90
26745;DHT22;14342;50.960;13.880;2023-10-08T06:18:15;9.20;99.90
26745;DHT22;14342;50.960;13.880;2023-10-08T06:19:16;9.30;99.90
26745;DHT22;14342;50.960;13.880;2023-10-08T06:20:18;9.30;99.90
26745;DHT22;14342;50.960;13.880;2023-10-08T06:21:25;9.30;99.90
26745;DHT22;14342;50.960;13.880;2023-10-08T06:22:27;9.30;99.90
26745;DHT22;14342;50.960;13.880;2023-10-08T06:23:29;9.30;99.90
26745;DHT22;14342;50.960;13.880;2023-10-08T06:24:32;9.30;99.90
26745;DHT22;14342;50.960;13.880;2023-10-08T06:25:39;9.30;99.90
26745;DHT22;14342;50.960;13.880;2023-10-08T06:26:45;9.40;99.90
26745;DHT22;14342;50.960;13.880;2023-10-08T06:27:49;9.50;99.90
26745;DHT22;14342;50.960;13.880;2023-10-08T06:28:50;9.50;99.90
26745;DHT22;14342;50.960;13.880;2023-10-08T06:29:57;9.60;99.90
26745;DHT22;14342;50.960;13.880;2023-10-08T06:30:58;9.70;99.90
26745;DHT22;14342;50.960;13.880;2023-10-08T06:32:01;9.80;99.90
26745;DHT22;14342;50.960;13.880;2023-10-08T06:33:02;9.90;99.90
26745;DHT22;14342;50.960;13.880;2023-10-08T06:34:06;9.80;99.90
26745;DHT22;14342;50.960;13.880;2023-10-08T06:35:08;9.80;99.90
26745;DHT22;14342;50.960;13.880;2023-10-08T06:36:17;9.90;99.90
26745;DHT22;14342;50.960;13.880;2023-10-08T06:37:24;9.90;99.90
26745;DHT22;14342;50.960;13.880;2023-10-08T06:38:25;10.00;99.90
26745;DHT22;14342;50.960;13.880;2023-10-08T06:39:27;10.10;99.90
26745;DHT22;14342;50.960;13.880;2023-10-08T06:40:47;10.10;99.90
26745;DHT22;14342;50.960;13.880;2023-10-08T06:41:48;10.10;99.90
26745;DHT22;14342;50.960;13.880;2023-10-08T06:42:52;10.10;99.90
26745;DHT22;14342;50.960;13.880;2023-10-08T06:43:57;10.20;99.90
26745;DHT22;14342;50.960;13.880;2023-10-08T06:45:03;10.20;99.90
26745;DHT22;14342;50.960;13.880;2023-10-08T06:46:04;10.20;99.90
26745;DHT22;14342;50.960;13.880;2023-10-08T06:47:07;10.20;99.90
26745;DHT22;14342;50.960;13.880;2023-10-08T06:48:10;10.20;99.90
26745;DHT22;14342;50.960;13.880;2023-10-08T06:49:19;10.10;99.90
26745;DHT22;14342;50.960;13.880;2023-10-08T06:50:23;10.10;99.90